sensor_id;sensor_type;location;lat;lon;timestamp;temperature;humidity
6954;DHT22;3516;47.980;8.808;2022-12-19T00:01:24;18.30;95.30
6954;DHT22;3516;47.980;8.808;2022-12-19T00:03:54;18.30;95.40
6954;DHT22;3516;47.980;8.808;2022-12-19T00:06:21;18.30;95.20
6954;DHT22;3516;47.980;8.808;2022-12-19T00:08:50;18.30;94.90
6954;DHT22;3516;47.980;8.808;2022-12-19T00:11:20;18.40;95.00
6954;DHT22;3516;47.980;8.808;2022-12-19T00:13:47;18.50;95.10
6954;DHT22;3516;47.980;8.808;2022-12-19T00:16:16;18.50;95.60
6954;DHT22;3516;47.980;8.808;2022-12-19T00:18:44;18.50;95.30
6954;DHT22;3516;47.980;8.808;2022-12-19T00:21:12;18.50;95.50
6954;DHT22;3516;47.980;8.808;2022-12-19T00:23:43;18.50;95.60
6954;DHT22;3516;47.980;8.808;2022-12-19T00:26:11;18.50;95.70
6954;DHT22;3516;47.980;8.808;2022-12-19T00:28:41;18.50;95.70
6954;DHT22;3516;47.980;8.808;2022-12-19T00:31:08;18.40;95.70
6954;DHT22;3516;47.980;8.808;2022-12-19T00:33:35;18.40;95.80
6954;DHT22;3516;47.980;8.808;2022-12-19T00:36:04;18.40;95.80
6954;DHT22;3516;47.980;8.808;2022-12-19T00:38:31;18.40;96.10
6954;DHT22;3516;47.980;8.808;2022-12-19T00:41:05;18.40;96.30
6954;DHT22;3516;47.980;8.808;2022-12-19T00:43:32;18.40;96.70
6954;DHT22;3516;47.980;8.808;2022-12-19T00:46:02;18.40;97.10
6954;DHT22;3516;47.980;8.808;2022-12-19T00:48:29;18.40;97.30
6954;DHT22;3516;47.980;8.808;2022-12-19T00:50:59;18.40;97.70
6954;DHT22;3516;47.980;8.808;2022-12-19T00:53:27;18.40;98.30
6954;DHT22;3516;47.980;8.808;2022-12-19T00:55:54;17.70;99.90
6954;DHT22;3516;47.980;8.808;2022-12-19T00:58:21;18.40;99.90
6954;DHT22;3516;47.980;8.808;2022-12-19T01:00:48;18.40;99.90
6954;DHT22;3516;47.980;8.808;2022-12-19T01:03:16;18.40;99.90
6954;DHT22;3516;47.980;8.808;2022-12-19T01:05:43;18.30;99.90
6954;DHT22;3516;47.980;8.808;2022-12-19T01:10:37;18.30;99.90
6954;DHT22;3516;47.980;8.808;2022-12-19T01:13:10;18.30;99.90
6954;DHT22;3516;47.980;8.808;2022-12-19T01:15:38;18.30;99.90
6954;DHT22;3516;47.980;8.808;2022-12-19T01:18:05;18.30;99.90
6954;DHT22;3516;47.980;8.808;2022-12-19T01:20:37;18.20;99.90
6954;DHT22;3516;47.980;8.808;2022-12-19T01:23:04;18.20;99.90
6954;DHT22;3516;47.980;8.808;2022-12-19T01:25:32;18.20;99.90
6954;DHT22;3516;47.980;8.808;2022-12-19T01:27:59;18.30;99.60
6954;DHT22;3516;47.980;8.808;2022-12-19T01:30:26;18.30;99.60
6954;DHT22;3516;47.980;8.808;2022-12-19T01:32:54;18.40;99.80
6954;DHT22;3516;47.980;8.808;2022-12-19T01:35:21;18.40;99.90
6954;DHT22;3516;47.980;8.808;2022-12-19T01:37:50;18.40;99.90
6954;DHT22;3516;47.980;8.808;2022-12-19T01:40:17;18.50;99.90
6954;DHT22;3516;47.980;8.808;2022-12-19T01:42:44;18.50;99.90
6954;DHT22;3516;47.980;8.808;2022-12-19T01:45:23;18.50;99.90
6954;DHT22;3516;47.980;8.808;2022-12-19T01:47:52;18.40;99.90
6954;DHT22;3516;47.980;8.808;2022-12-19T01:50:24;18.40;98.80
6954;DHT22;3516;47.980;8.808;2022-12-19T01:52:54;18.40;99.00
6954;DHT22;3516;47.980;8.808;2022-12-19T01:55:21;18.40;98.80
6954;DHT22;3516;47.980;8.808;2022-12-19T01:57:48;18.40;98.80
6954;DHT22;3516;47.980;8.808;2022-12-19T02:00:15;18.40;98.70
6954;DHT22;3516;47.980;8.808;2022-12-19T02:02:45;18.30;98.80
6954;DHT22;3516;47.980;8.808;2022-12-19T02:05:14;18.40;99.00
6954;DHT22;3516;47.980;8.808;2022-12-19T02:07:42;18.30;99.30
6954;DHT22;3516;47.980;8.808;2022-12-19T02:10:11;18.40;99.30
6954;DHT22;3516;47.980;8.808;2022-12-19T02:12:40;18.40;99.30
6954;DHT22;3516;47.980;8.808;2022-12-19T02:15:08;18.30;99.50
6954;DHT22;3516;47.980;8.808;2022-12-19T02:17:41;18.30;99.50
6954;DHT22;3516;47.980;8.808;2022-12-19T02:20:25;18.30;99.40
6954;DHT22;3516;47.980;8.808;2022-12-19T02:23:09;18.30;99.30
6954;DHT22;3516;47.980;8.808;2022-12-19T02:25:59;18.30;99.30
6954;DHT22;3516;47.980;8.808;2022-12-19T02:28:44;18.30;99.30
6954;DHT22;3516;47.980;8.808;2022-12-19T02:31:19;18.30;99.50
6954;DHT22;3516;47.980;8.808;2022-12-19T02:33:55;18.30;99.70
6954;DHT22;3516;47.980;8.808;2022-12-19T02:36:31;18.20;99.80
6954;DHT22;3516;47.980;8.808;2022-12-19T02:39:03;18.20;99.90
6954;DHT22;3516;47.980;8.808;2022-12-19T02:41:35;18.20;99.90
6954;DHT22;3516;47.980;8.808;2022-12-19T02:44:10;18.20;99.90
6954;DHT22;3516;47.980;8.808;2022-12-19T02:46:40;18.20;99.90
6954;DHT22;3516;47.980;8.808;2022-12-19T02:49:06;18.30;99.70
6954;DHT22;3516;47.980;8.808;2022-12-19T02:51:34;18.20;99.60
6954;DHT22;3516;47.980;8.808;2022-12-19T02:54:00;18.30;99.80
6954;DHT22;3516;47.980;8.808;2022-12-19T02:56:36;18.30;99.80
6954;DHT22;3516;47.980;8.808;2022-12-19T02:59:28;18.40;99.90
6954;DHT22;3516;47.980;8.808;2022-12-19T03:02:05;18.40;99.90
6954;DHT22;3516;47.980;8.808;2022-12-19T03:04:43;18.50;99.90
6954;DHT22;3516;47.980;8.808;2022-12-19T03:07:20;18.50;99.80
6954;DHT22;3516;47.980;8.808;2022-12-19T03:09:55;18.40;99.60
6954;DHT22;3516;47.980;8.808;2022-12-19T03:12:29;18.40;99.50
6954;DHT22;3516;47.980;8.808;2022-12-19T03:14:57;18.40;99.40
6954;DHT22;3516;47.980;8.808;2022-12-19T03:17:26;18.40;99.50
6954;DHT22;3516;47.980;8.808;2022-12-19T03:19:54;18.30;99.30
6954;DHT22;3516;47.980;8.808;2022-12-19T03:22:22;18.30;99.30
6954;DHT22;3516;47.980;8.808;2022-12-19T03:24:48;18.30;99.30
6954;DHT22;3516;47.980;8.808;2022-12-19T03:27:21;18.30;99.70
6954;DHT22;3516;47.980;8.808;2022-12-19T03:29:54;18.20;99.70
6954;DHT22;3516;47.980;8.808;2022-12-19T03:32:22;18.30;99.80
6954;DHT22;3516;47.980;8.808;2022-12-19T03:34:54;18.30;99.90
6954;DHT22;3516;47.980;8.808;2022-12-19T03:37:25;18.20;99.90
6954;DHT22;3516;47.980;8.808;2022-12-19T03:39:57;18.20;99.90
6954;DHT22;3516;47.980;8.808;2022-12-19T03:42:25;18.20;99.90
6954;DHT22;3516;47.980;8.808;2022-12-19T03:45:20;18.20;99.90
6954;DHT22;3516;47.980;8.808;2022-12-19T03:47:52;18.10;99.90
6954;DHT22;3516;47.980;8.808;2022-12-19T04:57:42;18.20;99.90
6954;DHT22;3516;47.980;8.808;2022-12-19T05:00:10;18.20;99.90
6954;DHT22;3516;47.980;8.808;2022-12-19T05:02:37;18.20;99.90
6954;DHT22;3516;47.980;8.808;2022-12-19T05:05:04;18.20;99.90
6954;DHT22;3516;47.980;8.808;2022-12-19T05:07:31;18.10;99.90
6954;DHT22;3516;47.980;8.808;2022-12-19T05:09:58;18.20;99.90
6954;DHT22;3516;47.980;8.808;2022-12-19T05:12:25;18.20;99.90
6954;DHT22;3516;47.980;8.808;2022-12-19T05:14:54;18.20;99.90
6954;DHT22;3516;47.980;8.808;2022-12-19T05:17:21;18.10;99.90
6954;DHT22;3516;47.980;8.808;2022-12-19T05:19:48;18.10;99.90
6954;DHT22;3516;47.980;8.808;2022-12-19T05:22:15;18.10;99.90
6954;DHT22;3516;47.980;8.808;2022-12-19T05:24:41;18.10;99.90
6954;DHT22;3516;47.980;8.808;2022-12-19T05:27:08;18.10;99.90
6954;DHT22;3516;47.980;8.808;2022-12-19T05:29:35;18.20;99.90
6954;DHT22;3516;47.980;8.808;2022-12-19T05:32:03;18.20;99.90
6954;DHT22;3516;47.980;8.808;2022-12-19T05:34:30;18.30;99.90
6954;DHT22;3516;47.980;8.808;2022-12-19T05:36:57;18.30;99.90
6954;DHT22;3516;47.980;8.808;2022-12-19T05:39:23;18.40;99.90
6954;DHT22;3516;47.980;8.808;2022-12-19T05:41:50;18.50;99.90
6954;DHT22;3516;47.980;8.808;2022-12-19T05:44:17;18.40;99.90
6954;DHT22;3516;47.980;8.808;2022-12-19T05:46:43;18.40;99.90
6954;DHT22;3516;47.980;8.808;2022-12-19T05:49:11;18.40;99.90
6954;DHT22;3516;47.980;8.808;2022-12-19T05:51:38;18.40;99.90
6954;DHT22;3516;47.980;8.808;2022-12-19T05:54:05;18.30;99.90
6954;DHT22;3516;47.980;8.808;2022-12-19T05:56:32;18.30;99.90
6954;DHT22;3516;47.980;8.808;2022-12-19T05:58:58;18.30;99.90
6954;DHT22;3516;47.980;8.808;2022-12-19T06:01:26;18.30;99.90
6954;DHT22;3516;47.980;8.808;2022-12-19T06:08:52;18.10;98.10
6954;DHT22;3516;47.980;8.808;2022-12-19T06:11:20;18.10;99.10
6954;DHT22;3516;47.980;8.808;2022-12-19T06:13:46;18.20;99.30
6954;DHT22;3516;47.980;8.808;2022-12-19T06:16:15;18.20;99.30
6954;DHT22;3516;47.980;8.808;2022-12-19T06:18:43;18.30;99.30
6954;DHT22;3516;47.980;8.808;2022-12-19T06:21:12;18.30;99.50
6954;DHT22;3516;47.980;8.808;2022-12-19T06:23:41;18.30;99.40
6954;DHT22;3516;47.980;8.808;2022-12-19T06:26:10;18.40;99.60
6954;DHT22;3516;47.980;8.808;2022-12-19T06:28:37;18.50;99.40
6954;DHT22;3516;47.980;8.808;2022-12-19T06:31:05;18.50;99.40
6954;DHT22;3516;47.980;8.808;2022-12-19T06:33:33;18.50;99.30
6954;DHT22;3516;47.980;8.808;2022-12-19T06:36:00;18.50;99.30
6954;DHT22;3516;47.980;8.808;2022-12-19T06:38:28;18.50;99.00
6954;DHT22;3516;47.980;8.808;2022-12-19T06:40:56;18.50;98.80
6954;DHT22;3516;47.980;8.808;2022-12-19T06:43:41;18.50;98.50
6954;DHT22;3516;47.980;8.808;2022-12-19T06:46:08;18.50;99.90
6954;DHT22;3516;47.980;8.808;2022-12-19T06:48:35;18.50;99.30
6954;DHT22;3516;47.980;8.808;2022-12-19T06:51:02;18.50;99.20
6954;DHT22;3516;47.980;8.808;2022-12-19T06:53:29;18.60;99.90
6954;DHT22;3516;47.980;8.808;2022-12-19T06:55:58;18.80;99.90
6954;DHT22;3516;47.980;8.808;2022-12-19T06:58:25;18.90;99.90
6954;DHT22;3516;47.980;8.808;2022-12-19T07:00:53;19.00;99.90
6954;DHT22;3516;47.980;8.808;2022-12-19T07:03:23;19.00;99.90
6954;DHT22;3516;47.980;8.808;2022-12-19T07:05:51;19.00;99.90
6954;DHT22;3516;47.980;8.808;2022-12-19T07:08:18;19.10;99.90
6954;DHT22;3516;47.980;8.808;2022-12-19T07:10:45;19.00;99.90
6954;DHT22;3516;47.980;8.808;2022-12-19T07:13:13;19.00;99.90
6954;DHT22;3516;47.980;8.808;2022-12-19T07:15:40;18.90;99.90
6954;DHT22;3516;47.980;8.808;2022-12-19T07:18:07;18.90;99.90
6954;DHT22;3516;47.980;8.808;2022-12-19T07:20:36;19.00;99.90
6954;DHT22;3516;47.980;8.808;2022-12-19T07:23:04;18.90;99.90
6954;DHT22;3516;47.980;8.808;2022-12-19T07:25:32;18.90;99.90
6954;DHT22;3516;47.980;8.808;2022-12-19T07:27:59;18.90;99.90
6954;DHT22;3516;47.980;8.808;2022-12-19T07:30:27;19.00;99.90
6954;DHT22;3516;47.980;8.808;2022-12-19T10:32:01;18.70;97.40
6954;DHT22;3516;47.980;8.808;2022-12-19T10:34:34;18.70;97.20
6954;DHT22;3516;47.980;8.808;2022-12-19T10:37:09;18.70;97.50
6954;DHT22;3516;47.980;8.808;2022-12-19T10:39:48;18.70;97.60
6954;DHT22;3516;47.980;8.808;2022-12-19T10:42:24;18.70;97.70
6954;DHT22;3516;47.980;8.808;2022-12-19T10:44:53;18.80;97.60
6954;DHT22;3516;47.980;8.808;2022-12-19T10:47:23;18.70;97.50
6954;DHT22;3516;47.980;8.808;2022-12-19T10:49:50;18.70;97.60
6954;DHT22;3516;47.980;8.808;2022-12-19T10:52:46;18.70;97.50
6954;DHT22;3516;47.980;8.808;2022-12-19T10:55:41;18.70;97.20
6954;DHT22;3516;47.980;8.808;2022-12-19T10:58:16;18.80;97.50
6954;DHT22;3516;47.980;8.808;2022-12-19T11:00:57;18.80;97.40
6954;DHT22;3516;47.980;8.808;2022-12-19T11:03:26;18.80;97.30
6954;DHT22;3516;47.980;8.808;2022-12-19T11:05:54;18.80;97.30
6954;DHT22;3516;47.980;8.808;2022-12-19T11:08:24;18.80;97.30
6954;DHT22;3516;47.980;8.808;2022-12-19T11:10:54;18.80;97.40
6954;DHT22;3516;47.980;8.808;2022-12-19T11:13:23;18.70;97.40
6954;DHT22;3516;47.980;8.808;2022-12-19T11:15:52;18.80;97.30
6954;DHT22;3516;47.980;8.808;2022-12-19T11:18:19;18.80;97.40
6954;DHT22;3516;47.980;8.808;2022-12-19T11:20:59;18.80;97.50
6954;DHT22;3516;47.980;8.808;2022-12-19T11:23:27;18.70;97.50
6954;DHT22;3516;47.980;8.808;2022-12-19T11:25:57;18.70;97.80
6954;DHT22;3516;47.980;8.808;2022-12-19T11:28:27;18.80;98.20
6954;DHT22;3516;47.980;8.808;2022-12-19T11:30:58;18.80;99.90
6954;DHT22;3516;47.980;8.808;2022-12-19T11:33:27;18.80;99.20
6954;DHT22;3516;47.980;8.808;2022-12-19T11:35:55;18.80;99.50
6954;DHT22;3516;47.980;8.808;2022-12-19T11:38:34;18.80;99.90
6954;DHT22;3516;47.980;8.808;2022-12-19T11:43:34;18.80;99.90
6954;DHT22;3516;47.980;8.808;2022-12-19T11:46:07;18.80;99.80
6954;DHT22;3516;47.980;8.808;2022-12-19T11:48:40;18.80;99.90
6954;DHT22;3516;47.980;8.808;2022-12-19T11:51:16;18.80;99.90
6954;DHT22;3516;47.980;8.808;2022-12-19T11:53:52;18.80;99.90
6954;DHT22;3516;47.980;8.808;2022-12-19T11:56:23;18.80;99.90
6954;DHT22;3516;47.980;8.808;2022-12-19T11:58:54;18.80;99.90
6954;DHT22;3516;47.980;8.808;2022-12-19T12:04:39;18.70;99.90
6954;DHT22;3516;47.980;8.808;2022-12-19T12:07:10;18.60;96.70
6954;DHT22;3516;47.980;8.808;2022-12-19T12:09:43;18.50;96.00
6954;DHT22;3516;47.980;8.808;2022-12-19T12:12:21;18.50;97.70
6954;DHT22;3516;47.980;8.808;2022-12-19T12:15:07;18.40;95.50
6954;DHT22;3516;47.980;8.808;2022-12-19T12:17:49;18.40;95.70
6954;DHT22;3516;47.980;8.808;2022-12-19T12:20:27;18.40;95.80
6954;DHT22;3516;47.980;8.808;2022-12-19T12:23:12;18.40;95.90
6954;DHT22;3516;47.980;8.808;2022-12-19T12:25:51;18.30;96.00
6954;DHT22;3516;47.980;8.808;2022-12-19T12:28:54;18.40;96.10
6954;DHT22;3516;47.980;8.808;2022-12-19T12:31:42;18.30;96.20
6954;DHT22;3516;47.980;8.808;2022-12-19T12:34:34;18.30;96.30
6954;DHT22;3516;47.980;8.808;2022-12-19T12:37:15;18.30;96.40
6954;DHT22;3516;47.980;8.808;2022-12-19T12:39:53;18.20;96.30
6954;DHT22;3516;47.980;8.808;2022-12-19T12:42:37;18.20;96.30
6954;DHT22;3516;47.980;8.808;2022-12-19T12:45:17;18.20;96.40
6954;DHT22;3516;47.980;8.808;2022-12-19T12:47:47;18.20;96.50
6954;DHT22;3516;47.980;8.808;2022-12-19T12:50:15;18.20;96.60
6954;DHT22;3516;47.980;8.808;2022-12-19T12:52:45;18.20;96.60
6954;DHT22;3516;47.980;8.808;2022-12-19T12:55:19;18.30;96.40
6954;DHT22;3516;47.980;8.808;2022-12-19T12:57:50;18.30;96.40
6954;DHT22;3516;47.980;8.808;2022-12-19T13:00:23;18.30;96.50
6954;DHT22;3516;47.980;8.808;2022-12-19T13:02:57;18.40;96.70
6954;DHT22;3516;47.980;8.808;2022-12-19T13:05:36;18.50;96.70
6954;DHT22;3516;47.980;8.808;2022-12-19T13:08:24;18.60;97.30
6954;DHT22;3516;47.980;8.808;2022-12-19T13:10:56;18.60;97.20
6954;DHT22;3516;47.980;8.808;2022-12-19T13:13:51;18.70;97.60
6954;DHT22;3516;47.980;8.808;2022-12-19T13:16:47;18.70;97.40
6954;DHT22;3516;47.980;8.808;2022-12-19T13:19:15;18.80;97.70
6954;DHT22;3516;47.980;8.808;2022-12-19T13:22:16;18.80;98.30
6954;DHT22;3516;47.980;8.808;2022-12-19T13:24:45;18.80;98.00
6954;DHT22;3516;47.980;8.808;2022-12-19T13:27:36;18.80;98.40
6954;DHT22;3516;47.980;8.808;2022-12-19T13:30:16;18.70;98.40
6954;DHT22;3516;47.980;8.808;2022-12-19T13:33:06;18.70;98.10
6954;DHT22;3516;47.980;8.808;2022-12-19T13:35:34;18.60;98.00
6954;DHT22;3516;47.980;8.808;2022-12-19T13:38:14;18.60;98.50
6954;DHT22;3516;47.980;8.808;2022-12-19T13:40:56;18.70;99.70
6954;DHT22;3516;47.980;8.808;2022-12-19T13:43:27;18.60;98.50
6954;DHT22;3516;47.980;8.808;2022-12-19T13:46:31;18.60;98.40
6954;DHT22;3516;47.980;8.808;2022-12-19T13:49:04;18.70;98.40
6954;DHT22;3516;47.980;8.808;2022-12-19T13:51:41;18.50;98.20
6954;DHT22;3516;47.980;8.808;2022-12-19T13:54:18;18.50;98.20
6954;DHT22;3516;47.980;8.808;2022-12-19T13:56:45;18.40;98.40
6954;DHT22;3516;47.980;8.808;2022-12-19T13:59:12;18.50;98.40
6954;DHT22;3516;47.980;8.808;2022-12-19T14:01:40;18.40;99.20
6954;DHT22;3516;47.980;8.808;2022-12-19T14:04:09;18.30;97.40
6954;DHT22;3516;47.980;8.808;2022-12-19T14:06:39;18.30;98.30
6954;DHT22;3516;47.980;8.808;2022-12-19T14:09:19;18.90;98.00
6954;DHT22;3516;47.980;8.808;2022-12-19T14:11:48;18.30;98.00
6954;DHT22;3516;47.980;8.808;2022-12-19T14:14:17;18.50;99.90
6954;DHT22;3516;47.980;8.808;2022-12-19T14:17:07;18.40;98.90
6954;DHT22;3516;47.980;8.808;2022-12-19T14:19:39;18.40;98.80
6954;DHT22;3516;47.980;8.808;2022-12-19T14:22:10;18.40;99.30
6954;DHT22;3516;47.980;8.808;2022-12-19T14:24:38;18.40;99.30
6954;DHT22;3516;47.980;8.808;2022-12-19T14:27:07;18.40;99.30
6954;DHT22;3516;47.980;8.808;2022-12-19T14:29:41;18.40;99.20
6954;DHT22;3516;47.980;8.808;2022-12-19T14:32:12;18.40;98.80
6954;DHT22;3516;47.980;8.808;2022-12-19T14:34:40;18.40;98.80
6954;DHT22;3516;47.980;8.808;2022-12-19T14:37:26;18.60;99.40
6954;DHT22;3516;47.980;8.808;2022-12-19T14:39:58;18.40;99.10
6954;DHT22;3516;47.980;8.808;2022-12-19T14:42:27;18.40;98.80
6954;DHT22;3516;47.980;8.808;2022-12-19T14:45:32;18.40;98.80
6954;DHT22;3516;47.980;8.808;2022-12-19T14:48:01;18.40;97.50
6954;DHT22;3516;47.980;8.808;2022-12-19T14:50:31;18.50;97.50
6954;DHT22;3516;47.980;8.808;2022-12-19T14:53:13;18.40;97.60
6954;DHT22;3516;47.980;8.808;2022-12-19T14:55:42;18.40;98.60
6954;DHT22;3516;47.980;8.808;2022-12-19T14:58:16;18.40;98.50
6954;DHT22;3516;47.980;8.808;2022-12-19T15:00:46;18.40;98.20
6954;DHT22;3516;47.980;8.808;2022-12-19T15:03:22;18.30;98.20
6954;DHT22;3516;47.980;8.808;2022-12-19T15:05:50;18.30;95.60
6954;DHT22;3516;47.980;8.808;2022-12-19T15:08:27;18.30;94.80
6954;DHT22;3516;47.980;8.808;2022-12-19T15:10:57;18.30;95.30
6954;DHT22;3516;47.980;8.808;2022-12-19T15:13:51;18.30;95.50
6954;DHT22;3516;47.980;8.808;2022-12-19T15:16:24;18.30;95.40
6954;DHT22;3516;47.980;8.808;2022-12-19T15:18:55;18.30;95.30
6954;DHT22;3516;47.980;8.808;2022-12-19T15:21:22;18.30;95.40
6954;DHT22;3516;47.980;8.808;2022-12-19T15:23:49;18.30;95.50
6954;DHT22;3516;47.980;8.808;2022-12-19T15:26:18;18.40;95.80
6954;DHT22;3516;47.980;8.808;2022-12-19T15:28:46;18.40;95.80
6954;DHT22;3516;47.980;8.808;2022-12-19T15:31:33;18.30;95.80
6954;DHT22;3516;47.980;8.808;2022-12-19T15:34:05;18.30;95.80
6954;DHT22;3516;47.980;8.808;2022-12-19T15:36:38;18.30;95.90
6954;DHT22;3516;47.980;8.808;2022-12-19T15:39:05;18.30;96.00
6954;DHT22;3516;47.980;8.808;2022-12-19T15:41:32;18.50;96.20
6954;DHT22;3516;47.980;8.808;2022-12-19T15:44:02;18.30;96.10
6954;DHT22;3516;47.980;8.808;2022-12-19T15:46:31;18.40;96.20
6954;DHT22;3516;47.980;8.808;2022-12-19T15:48:58;18.40;96.40
6954;DHT22;3516;47.980;8.808;2022-12-19T15:51:26;18.40;96.50
6954;DHT22;3516;47.980;8.808;2022-12-19T15:53:53;18.40;96.60
6954;DHT22;3516;47.980;8.808;2022-12-19T15:56:25;18.30;96.50
6954;DHT22;3516;47.980;8.808;2022-12-19T15:58:53;18.30;96.50
6954;DHT22;3516;47.980;8.808;2022-12-19T16:01:21;18.30;96.60
6954;DHT22;3516;47.980;8.808;2022-12-19T16:03:49;18.30;96.70
6954;DHT22;3516;47.980;8.808;2022-12-19T16:06:16;18.30;96.80
6954;DHT22;3516;47.980;8.808;2022-12-19T16:08:44;18.30;96.80
6954;DHT22;3516;47.980;8.808;2022-12-19T16:11:16;18.30;96.80
6954;DHT22;3516;47.980;8.808;2022-12-19T16:13:45;18.30;96.80
6954;DHT22;3516;47.980;8.808;2022-12-19T16:16:15;18.30;97.20
6954;DHT22;3516;47.980;8.808;2022-12-19T16:18:42;18.30;96.80
6954;DHT22;3516;47.980;8.808;2022-12-19T16:21:17;18.30;96.80
6954;DHT22;3516;47.980;8.808;2022-12-19T16:23:46;18.20;96.50
6954;DHT22;3516;47.980;8.808;2022-12-19T16:26:28;18.20;96.50
6954;DHT22;3516;47.980;8.808;2022-12-19T16:28:56;18.20;96.50
6954;DHT22;3516;47.980;8.808;2022-12-19T16:31:24;18.20;96.40
6954;DHT22;3516;47.980;8.808;2022-12-19T16:33:52;18.20;96.40
6954;DHT22;3516;47.980;8.808;2022-12-19T16:36:20;18.20;96.40
6954;DHT22;3516;47.980;8.808;2022-12-19T16:38:49;18.20;96.30
6954;DHT22;3516;47.980;8.808;2022-12-19T16:41:20;18.20;96.10
6954;DHT22;3516;47.980;8.808;2022-12-19T16:43:48;18.20;96.10
6954;DHT22;3516;47.980;8.808;2022-12-19T16:46:17;18.20;95.90
6954;DHT22;3516;47.980;8.808;2022-12-19T16:48:45;18.20;96.00
6954;DHT22;3516;47.980;8.808;2022-12-19T16:51:17;18.10;95.90
6954;DHT22;3516;47.980;8.808;2022-12-19T16:53:45;18.10;95.90
6954;DHT22;3516;47.980;8.808;2022-12-19T16:56:30;18.00;95.70
6954;DHT22;3516;47.980;8.808;2022-12-19T16:59:00;18.10;95.80
6954;DHT22;3516;47.980;8.808;2022-12-19T17:01:28;18.00;95.60
6954;DHT22;3516;47.980;8.808;2022-12-19T17:03:55;17.90;95.40
6954;DHT22;3516;47.980;8.808;2022-12-19T17:06:22;17.90;95.20
6954;DHT22;3516;47.980;8.808;2022-12-19T17:08:49;17.90;95.40
6954;DHT22;3516;47.980;8.808;2022-12-19T17:11:18;17.90;95.40
6954;DHT22;3516;47.980;8.808;2022-12-19T17:13:49;17.90;95.10
6954;DHT22;3516;47.980;8.808;2022-12-19T17:16:16;17.90;95.20
6954;DHT22;3516;47.980;8.808;2022-12-19T17:18:45;18.00;95.20
6954;DHT22;3516;47.980;8.808;2022-12-19T17:21:15;18.20;95.30
6954;DHT22;3516;47.980;8.808;2022-12-19T17:23:42;18.10;95.50
6954;DHT22;3516;47.980;8.808;2022-12-19T17:26:11;18.20;95.70
6954;DHT22;3516;47.980;8.808;2022-12-19T17:28:38;18.30;95.90
6954;DHT22;3516;47.980;8.808;2022-12-19T17:31:11;18.30;95.80
6954;DHT22;3516;47.980;8.808;2022-12-19T17:33:40;18.40;95.60
6954;DHT22;3516;47.980;8.808;2022-12-19T17:36:10;18.40;95.40
6954;DHT22;3516;47.980;8.808;2022-12-19T17:38:38;18.40;95.30
6954;DHT22;3516;47.980;8.808;2022-12-19T17:41:05;18.30;95.20
6954;DHT22;3516;47.980;8.808;2022-12-19T17:43:34;18.30;95.20
6954;DHT22;3516;47.980;8.808;2022-12-19T17:46:01;18.50;96.10
6954;DHT22;3516;47.980;8.808;2022-12-19T17:48:30;18.50;96.70
6954;DHT22;3516;47.980;8.808;2022-12-19T17:50:58;18.70;95.80
6954;DHT22;3516;47.980;8.808;2022-12-19T17:53:25;18.70;94.60
6954;DHT22;3516;47.980;8.808;2022-12-19T17:55:52;18.60;94.60
6954;DHT22;3516;47.980;8.808;2022-12-19T17:58:19;18.70;94.90
6954;DHT22;3516;47.980;8.808;2022-12-19T18:00:46;18.80;95.10
6954;DHT22;3516;47.980;8.808;2022-12-19T18:03:19;19.00;95.30
6954;DHT22;3516;47.980;8.808;2022-12-19T18:05:48;19.30;95.10
6954;DHT22;3516;47.980;8.808;2022-12-19T18:08:24;19.40;95.00
6954;DHT22;3516;47.980;8.808;2022-12-19T18:10:52;19.60;94.30
6954;DHT22;3516;47.980;8.808;2022-12-19T18:13:21;19.70;93.80
6954;DHT22;3516;47.980;8.808;2022-12-19T18:15:48;19.70;93.20
6954;DHT22;3516;47.980;8.808;2022-12-19T18:18:19;19.80;92.60
6954;DHT22;3516;47.980;8.808;2022-12-19T18:20:48;19.80;92.40
6954;DHT22;3516;47.980;8.808;2022-12-19T18:23:17;19.80;91.60
6954;DHT22;3516;47.980;8.808;2022-12-19T18:25:44;19.90;91.20
6954;DHT22;3516;47.980;8.808;2022-12-19T18:28:12;19.80;90.90
6954;DHT22;3516;47.980;8.808;2022-12-19T18:30:39;19.80;90.60
6954;DHT22;3516;47.980;8.808;2022-12-19T18:33:07;19.80;90.30
6954;DHT22;3516;47.980;8.808;2022-12-19T18:35:39;19.90;90.30
6954;DHT22;3516;47.980;8.808;2022-12-19T18:38:11;19.90;90.00
6954;DHT22;3516;47.980;8.808;2022-12-19T18:40:38;19.90;89.90
6954;DHT22;3516;47.980;8.808;2022-12-19T18:43:05;20.00;90.30
6954;DHT22;3516;47.980;8.808;2022-12-19T18:45:34;20.00;84.60
6954;DHT22;3516;47.980;8.808;2022-12-19T18:48:04;19.90;84.60
6954;DHT22;3516;47.980;8.808;2022-12-19T18:50:31;19.90;83.40
6954;DHT22;3516;47.980;8.808;2022-12-19T18:52:59;20.10;83.80
6954;DHT22;3516;47.980;8.808;2022-12-19T18:55:28;20.00;83.70
6954;DHT22;3516;47.980;8.808;2022-12-19T18:57:56;20.10;84.40
6954;DHT22;3516;47.980;8.808;2022-12-19T19:00:24;20.10;84.50
6954;DHT22;3516;47.980;8.808;2022-12-19T19:02:54;20.10;83.20
6954;DHT22;3516;47.980;8.808;2022-12-19T19:05:25;20.10;82.40
6954;DHT22;3516;47.980;8.808;2022-12-19T19:07:52;20.10;82.00
6954;DHT22;3516;47.980;8.808;2022-12-19T19:10:23;20.10;81.80
6954;DHT22;3516;47.980;8.808;2022-12-19T19:12:51;20.10;81.50
6954;DHT22;3516;47.980;8.808;2022-12-19T19:15:20;20.10;81.30
6954;DHT22;3516;47.980;8.808;2022-12-19T19:17:48;20.30;81.30
6954;DHT22;3516;47.980;8.808;2022-12-19T19:20:16;20.20;81.10
6954;DHT22;3516;47.980;8.808;2022-12-19T19:22:43;20.20;80.80
6954;DHT22;3516;47.980;8.808;2022-12-19T19:25:10;20.30;80.80
6954;DHT22;3516;47.980;8.808;2022-12-19T19:27:38;20.30;80.40
6954;DHT22;3516;47.980;8.808;2022-12-19T19:30:08;20.30;80.20
6954;DHT22;3516;47.980;8.808;2022-12-19T19:32:38;20.30;79.80
6954;DHT22;3516;47.980;8.808;2022-12-19T19:35:08;20.30;79.80
6954;DHT22;3516;47.980;8.808;2022-12-19T19:37:35;20.40;79.70
6954;DHT22;3516;47.980;8.808;2022-12-19T19:40:02;20.50;79.80
6954;DHT22;3516;47.980;8.808;2022-12-19T19:42:29;20.40;79.10
6954;DHT22;3516;47.980;8.808;2022-12-19T19:44:56;20.40;78.90
6954;DHT22;3516;47.980;8.808;2022-12-19T19:47:25;20.40;78.90
6954;DHT22;3516;47.980;8.808;2022-12-19T19:49:54;20.50;78.60
6954;DHT22;3516;47.980;8.808;2022-12-19T19:52:20;20.50;78.50
6954;DHT22;3516;47.980;8.808;2022-12-19T19:54:47;20.50;78.20
6954;DHT22;3516;47.980;8.808;2022-12-19T19:57:14;20.50;78.20
6954;DHT22;3516;47.980;8.808;2022-12-19T19:59:41;20.70;78.30
6954;DHT22;3516;47.980;8.808;2022-12-19T20:02:07;20.50;78.10
6954;DHT22;3516;47.980;8.808;2022-12-19T20:04:36;20.50;77.80
6954;DHT22;3516;47.980;8.808;2022-12-19T20:07:04;20.60;78.10
6954;DHT22;3516;47.980;8.808;2022-12-19T20:09:30;20.60;79.00
6954;DHT22;3516;47.980;8.808;2022-12-19T20:11:57;20.70;78.70
6954;DHT22;3516;47.980;8.808;2022-12-19T20:14:24;20.70;78.40
6954;DHT22;3516;47.980;8.808;2022-12-19T20:16:52;20.60;78.10
6954;DHT22;3516;47.980;8.808;2022-12-19T20:19:19;20.50;78.10
6954;DHT22;3516;47.980;8.808;2022-12-19T20:21:47;20.50;78.10
6954;DHT22;3516;47.980;8.808;2022-12-19T20:24:14;20.40;77.80
6954;DHT22;3516;47.980;8.808;2022-12-19T20:26:40;20.30;78.50
6954;DHT22;3516;47.980;8.808;2022-12-19T20:29:07;20.30;77.90
6954;DHT22;3516;47.980;8.808;2022-12-19T20:31:36;20.20;77.80
6954;DHT22;3516;47.980;8.808;2022-12-19T20:34:03;20.10;78.10
6954;DHT22;3516;47.980;8.808;2022-12-19T20:36:30;20.10;78.40
6954;DHT22;3516;47.980;8.808;2022-12-19T20:38:58;20.00;78.50
6954;DHT22;3516;47.980;8.808;2022-12-19T20:41:25;19.90;78.60
6954;DHT22;3516;47.980;8.808;2022-12-19T20:43:51;19.80;79.10
6954;DHT22;3516;47.980;8.808;2022-12-19T20:46:20;19.80;79.40